Saint Joseph, Missouri
Current Conditions -  °F | °C
As of 6:53 PM on Saturday 25 Oct 2014 (Local Time) from KSTJ Reporting Station
Clear Clear  
Wind Chill: 68°   Ceiling: Unl
Heat Index: 68°   Visibility: 10mi
Dew Point: 49°   Wind: 6mph
Humidity: 50%   Direction: 80°E
Pressure: 30.01"   Gusts: NA
Location:  39.76°N, 94.82°W
Report Text: KSTJ 252353Z AUTO 08005KT 10SM CLR 20/09 A3001 RMK AO2 SLP158 T02000094 10272 20200 57009
Loading
Personal Weather Stations






























Interactive Weather Map
Tropical Storm Tracking
New forecast layout! Learn more

10-Day Weather Forecast

Advertisements
Track Severe Weather on mobile